createdAt,value
2022-09-27T00:01:10.905Z,15.10
2022-09-27T00:03:39.196Z,15.85
2022-09-27T00:06:12.322Z,15.30
2022-09-27T00:08:40.077Z,18.15
2022-09-27T00:11:17.736Z,13.68
2022-09-27T00:13:45.403Z,16.48
2022-09-27T00:16:12.905Z,14.98
2022-09-27T00:18:40.347Z,16.63
2022-09-27T00:21:11.018Z,15.23
2022-09-27T00:23:39.136Z,15.45
2022-09-27T00:26:08.098Z,13.10
2022-09-27T00:28:35.749Z,16.70
2022-09-27T00:31:03.928Z,12.93
2022-09-27T00:33:31.456Z,13.50
2022-09-27T00:36:06.322Z,14.40
2022-09-27T00:38:33.778Z,14.07
2022-09-27T00:41:01.311Z,14.65
2022-09-27T00:44:04.664Z,13.43
2022-09-27T00:46:47.183Z,11.65
2022-09-27T00:49:23.153Z,13.63
2022-09-27T00:51:56.119Z,12.95
2022-09-27T00:54:29.206Z,12.57
2022-09-27T00:56:57.976Z,16.02
2022-09-27T00:59:39.950Z,12.52
2022-09-27T01:02:08.294Z,12.98
2022-09-27T01:04:38.816Z,13.63
2022-09-27T01:07:06.557Z,13.25
2022-09-27T01:09:35.085Z,13.85
2022-09-27T01:12:27.817Z,11.70
2022-09-27T01:14:55.144Z,17.27
2022-09-27T01:17:37.566Z,13.02
2022-09-27T01:20:13.606Z,12.20
2022-09-27T01:23:15.646Z,13.43
2022-09-27T01:26:01.202Z,13.93
2022-09-27T01:28:49.355Z,11.18
2022-09-27T01:31:47.423Z,12.85
2022-09-27T01:34:35.299Z,12.55
2022-09-27T01:37:28.111Z,14.07
2022-09-27T01:40:24.782Z,13.38
2022-09-27T01:42:58.223Z,13.68
2022-09-27T01:45:39.119Z,13.32
2022-09-27T01:48:30.931Z,13.43
2022-09-27T01:51:18.890Z,14.10
2022-09-27T01:53:53.795Z,12.85
2022-09-27T01:56:45.164Z,13.15
2022-09-27T02:02:07.336Z,11.82
2022-09-27T02:04:38.555Z,11.65
2022-09-27T02:12:40.339Z,11.65
2022-09-27T02:15:12.006Z,13.43
2022-09-27T02:17:58.083Z,13.88
2022-09-27T02:20:36.948Z,11.90
2022-09-27T02:23:44.823Z,16.70
2022-09-27T02:26:15.041Z,16.75
2022-09-27T02:29:11.543Z,12.73
2022-09-27T02:31:39.286Z,13.57
2022-09-27T02:34:19.341Z,16.48
2022-09-27T02:36:48.569Z,12.90
2022-09-27T02:39:17.969Z,13.50
2022-09-27T02:41:45.817Z,14.68
2022-09-27T02:44:15.753Z,13.38
2022-09-27T02:47:13.275Z,17.02
2022-09-27T02:49:46.554Z,13.80
2022-09-27T02:52:14.106Z,14.75
2022-09-27T02:54:56.022Z,13.52
2022-09-27T02:57:41.500Z,15.95
2022-09-27T03:00:12.427Z,15.63
2022-09-27T03:03:01.017Z,14.30
2022-09-27T03:05:32.553Z,11.75
2022-09-27T03:08:00.181Z,13.32
2022-09-27T03:10:29.558Z,18.35
2022-09-27T03:12:58.872Z,11.73
2022-09-27T03:15:26.299Z,13.95
2022-09-27T03:17:53.642Z,12.48
2022-09-27T03:20:20.991Z,15.60
2022-09-27T03:22:48.481Z,13.23
2022-09-27T03:25:15.921Z,13.70
2022-09-27T03:27:44.275Z,15.63
2022-09-27T03:30:14.295Z,15.95
2022-09-27T03:32:45.553Z,16.23
2022-09-27T03:35:13.846Z,16.15
2022-09-27T03:37:42.036Z,14.52
2022-09-27T03:40:10.270Z,12.07
2022-09-27T03:42:38.726Z,15.13
2022-09-27T03:45:06.718Z,14.68
2022-09-27T03:47:34.207Z,16.65
2022-09-27T03:50:01.648Z,16.63
2022-09-27T03:52:29.167Z,17.83
2022-09-27T03:55:01.867Z,14.73
2022-09-27T03:57:31.010Z,12.63
2022-09-27T04:00:00.029Z,13.32
2022-09-27T04:02:28.436Z,15.20
2022-09-27T04:04:55.939Z,15.15
2022-09-27T04:07:23.877Z,16.50
2022-09-27T04:09:51.319Z,16.08
2022-09-27T04:12:18.743Z,15.32
2022-09-27T04:14:46.224Z,14.10
2022-09-27T04:17:13.721Z,14.88
2022-09-27T04:19:41.240Z,14.73
2022-09-27T04:22:08.651Z,16.02
2022-09-27T04:24:36.148Z,18.65
2022-09-27T04:27:03.593Z,14.68
2022-09-27T04:29:32.148Z,17.92
2022-09-27T04:31:59.740Z,15.07
2022-09-27T04:34:46.359Z,14.65
2022-09-27T04:37:14.105Z,14.73
2022-09-27T04:39:41.569Z,15.27
2022-09-27T04:42:09.862Z,13.50
2022-09-27T04:44:37.290Z,14.07
2022-09-27T04:47:04.781Z,19.77
2022-09-27T04:49:32.201Z,15.70
2022-09-27T04:51:59.609Z,19.83
2022-09-27T04:54:27.038Z,14.88
2022-09-27T04:56:54.429Z,17.58
2022-09-27T04:59:21.856Z,18.70
2022-09-27T05:01:50.631Z,16.38
2022-09-27T05:04:18.152Z,16.05
2022-09-27T05:06:45.652Z,16.70
2022-09-27T05:09:13.081Z,20.05
2022-09-27T05:11:40.783Z,19.58
2022-09-27T05:14:08.455Z,16.90
2022-09-27T05:16:39.158Z,16.63
2022-09-27T05:19:06.612Z,15.82
2022-09-27T05:21:34.007Z,16.35
2022-09-27T05:24:01.558Z,16.85
2022-09-27T05:26:28.988Z,22.88
2022-09-27T05:28:56.420Z,18.60
2022-09-27T05:31:23.909Z,15.65
2022-09-27T05:33:51.390Z,16.52
2022-09-27T05:36:18.932Z,23.23
2022-09-27T05:38:46.494Z,27.00
2022-09-27T05:41:13.922Z,24.17
2022-09-27T05:43:41.684Z,21.48
2022-09-27T05:46:09.100Z,18.75
2022-09-27T05:48:37.128Z,19.42
2022-09-27T05:51:05.082Z,21.48
2022-09-27T05:53:32.606Z,27.92
2022-09-27T05:56:04.684Z,24.48
2022-09-27T05:58:32.103Z,22.50
2022-09-27T06:00:59.561Z,25.23
2022-09-27T06:03:27.009Z,19.63
2022-09-27T06:05:54.950Z,22.45
2022-09-27T06:08:22.369Z,23.20
2022-09-27T06:10:49.891Z,20.30
2022-09-27T06:13:18.365Z,19.30
2022-09-27T06:15:47.369Z,22.33
2022-09-27T06:18:19.129Z,24.73
2022-09-27T06:20:46.851Z,27.13
2022-09-27T06:23:19.822Z,24.77
2022-09-27T06:25:47.608Z,26.90
2022-09-27T06:28:16.650Z,24.38
2022-09-27T06:30:46.282Z,26.90
2022-09-27T06:33:16.599Z,24.88
2022-09-27T06:35:45.537Z,24.40
2022-09-27T06:38:15.972Z,28.27
2022-09-27T06:40:45.821Z,26.60
2022-09-27T06:43:19.900Z,24.88
2022-09-27T06:45:48.165Z,24.65
2022-09-27T06:48:17.158Z,26.98
2022-09-27T06:50:46.323Z,24.30
2022-09-27T06:53:16.188Z,23.85
2022-09-27T06:55:44.012Z,23.85
2022-09-27T06:58:30.761Z,23.67
2022-09-27T07:00:59.086Z,24.00
2022-09-27T07:03:35.550Z,23.85
2022-09-27T07:06:06.756Z,25.63
2022-09-27T07:08:36.133Z,28.92
2022-09-27T07:11:06.609Z,26.02
2022-09-27T07:13:37.293Z,29.85
2022-09-27T07:16:04.811Z,28.35
2022-09-27T07:18:32.217Z,29.23
2022-09-27T07:21:01.500Z,30.40
2022-09-27T07:23:29.210Z,27.60
2022-09-27T07:25:56.674Z,28.55
2022-09-27T07:28:24.102Z,27.73
2022-09-27T07:30:56.288Z,25.60
2022-09-27T07:33:23.939Z,28.73
2022-09-27T07:35:51.450Z,28.58
2022-09-27T07:38:19.088Z,26.48
2022-09-27T07:40:46.606Z,27.95
2022-09-27T07:43:14.216Z,27.63
2022-09-27T07:45:41.734Z,29.85
2022-09-27T07:48:12.791Z,30.13
2022-09-27T07:50:40.438Z,29.42
2022-09-27T07:53:07.995Z,30.50
2022-09-27T07:55:35.403Z,32.42
2022-09-27T07:58:11.400Z,34.17
2022-09-27T08:00:40.983Z,32.78
2022-09-27T08:03:16.490Z,34.33
2022-09-27T08:05:45.818Z,38.35
2022-09-27T08:08:14.463Z,38.65
2022-09-27T08:10:44.655Z,35.72
2022-09-27T08:13:12.504Z,37.97
2022-09-27T08:15:39.945Z,36.03
2022-09-27T08:18:09.654Z,36.40
2022-09-27T08:20:37.445Z,39.10
2022-09-27T08:23:04.971Z,37.88
2022-09-27T08:25:32.352Z,38.58
2022-09-27T08:28:01.946Z,36.28
2022-09-27T08:30:31.347Z,36.20
2022-09-27T08:33:00.431Z,36.28
2022-09-27T08:35:29.018Z,39.03
2022-09-27T08:37:59.126Z,39.53
2022-09-27T08:40:35.029Z,38.08
2022-09-27T08:43:31.070Z,40.92
2022-09-27T08:46:39.968Z,43.30
2022-09-27T08:49:19.361Z,40.15
2022-09-27T08:51:51.004Z,39.10
2022-09-27T08:54:30.329Z,39.90
2022-09-27T08:57:18.045Z,34.45
2022-09-27T09:00:01.099Z,41.65
2022-09-27T09:02:28.613Z,31.88
2022-09-27T09:05:07.114Z,36.97
2022-09-27T09:08:00.214Z,36.45
2022-09-27T09:11:03.927Z,39.78
2022-09-27T09:13:40.114Z,43.80
2022-09-27T09:16:16.353Z,39.40
2022-09-27T09:18:43.769Z,35.03
2022-09-27T09:21:21.895Z,32.45
2022-09-27T09:23:51.971Z,35.80
2022-09-27T09:26:22.525Z,36.65
2022-09-27T09:29:14.512Z,35.42
2022-09-27T09:31:51.992Z,35.33
2022-09-27T09:34:24.918Z,33.35
2022-09-27T09:37:21.613Z,32.53
2022-09-27T09:39:59.957Z,35.78
2022-09-27T09:42:36.103Z,31.92
2022-09-27T09:45:16.929Z,29.10
2022-09-27T09:47:47.183Z,30.33
2022-09-27T09:50:22.906Z,31.80
2022-09-27T09:53:04.300Z,31.88
2022-09-27T09:55:35.797Z,30.10
2022-09-27T09:58:33.605Z,28.42
2022-09-27T10:01:13.368Z,26.25
2022-09-27T10:03:40.994Z,24.45
2022-09-27T10:06:11.192Z,23.45
2022-09-27T10:08:40.880Z,23.35
2022-09-27T10:11:26.559Z,20.70
2022-09-27T10:13:56.618Z,22.50
2022-09-27T10:16:26.400Z,21.83
2022-09-27T10:18:58.911Z,21.90
2022-09-27T10:21:30.435Z,21.70
2022-09-27T10:24:16.818Z,20.33
2022-09-27T10:26:48.594Z,19.92
2022-09-27T10:29:38.368Z,19.20
2022-09-27T10:32:19.240Z,19.25
2022-09-27T10:34:46.714Z,21.92
2022-09-27T10:37:22.349Z,22.77
2022-09-27T10:39:52.010Z,19.55
2022-09-27T10:42:38.986Z,19.85
2022-09-27T10:45:33.721Z,20.35
2022-09-27T10:48:02.368Z,20.38
2022-09-27T10:50:49.828Z,20.08
2022-09-27T10:53:21.822Z,17.63
2022-09-27T10:55:52.270Z,16.23
2022-09-27T10:58:35.079Z,15.23
2022-09-27T11:01:08.944Z,17.15
2022-09-27T11:03:52.548Z,17.17
2022-09-27T11:06:22.974Z,19.05
2022-09-27T11:08:54.558Z,20.38
2022-09-27T11:11:26.100Z,17.42
2022-09-27T11:14:18.003Z,17.38
2022-09-27T11:16:53.926Z,19.58
2022-09-27T11:19:24.238Z,17.48
2022-09-27T11:22:41.393Z,16.90
2022-09-27T11:25:39.885Z,14.85
2022-09-27T11:28:23.158Z,13.25
2022-09-27T11:31:22.812Z,11.35
2022-09-27T11:34:04.831Z,15.48
2022-09-27T11:37:01.235Z,14.73
2022-09-27T11:39:51.936Z,12.95
2022-09-27T11:42:43.734Z,14.77
2022-09-27T11:46:03.310Z,11.88
2022-09-27T11:48:46.395Z,11.75
2022-09-27T11:51:33.648Z,12.13
2022-09-27T11:54:19.249Z,10.75
2022-09-27T11:57:19.118Z,12.50
2022-09-27T12:00:32.822Z,15.68
2022-09-27T12:03:12.713Z,15.18
2022-09-27T12:06:06.991Z,14.25
2022-09-27T12:08:59.744Z,14.20
2022-09-27T12:11:38.929Z,13.70
2022-09-27T12:14:17.819Z,13.02
2022-09-27T12:16:50.603Z,14.68
2022-09-27T12:19:35.996Z,15.63
2022-09-27T12:22:06.842Z,15.73
2022-09-27T12:24:34.674Z,13.40
2022-09-27T12:27:14.372Z,16.65
2022-09-27T12:29:43.630Z,12.85
2022-09-27T12:32:32.622Z,13.60
2022-09-27T12:35:11.735Z,12.00
2022-09-27T12:37:51.449Z,14.68
2022-09-27T12:40:29.344Z,11.90
2022-09-27T12:43:02.899Z,11.10
2022-09-27T12:45:57.283Z,15.27
2022-09-27T12:48:24.674Z,12.48
2022-09-27T12:51:12.448Z,12.45
2022-09-27T12:53:59.151Z,13.43
2022-09-27T12:56:51.762Z,12.38
2022-09-27T12:59:58.065Z,12.98
2022-09-27T13:03:14.853Z,13.55
2022-09-27T13:06:04.193Z,12.05
2022-09-27T13:08:31.706Z,13.07
2022-09-27T13:11:20.036Z,11.57
2022-09-27T13:13:47.874Z,12.40
2022-09-27T13:16:15.438Z,11.93
2022-09-27T13:18:52.102Z,12.18
2022-09-27T13:21:56.757Z,12.75
2022-09-27T13:24:51.157Z,15.55
2022-09-27T13:27:30.698Z,12.43
2022-09-27T13:30:12.925Z,10.88
2022-09-27T13:32:41.024Z,12.27
2022-09-27T13:35:19.151Z,14.07
2022-09-27T13:37:50.858Z,16.33
2022-09-27T13:40:37.585Z,14.43
2022-09-27T13:43:18.208Z,14.90
2022-09-27T13:46:00.088Z,12.55
2022-09-27T13:48:45.370Z,12.20
2022-09-27T13:51:40.992Z,12.60
2022-09-27T13:54:33.990Z,13.65
2022-09-27T13:57:02.601Z,17.75
2022-09-27T13:59:52.772Z,14.85
2022-09-27T14:03:01.368Z,13.27
2022-09-27T14:05:38.037Z,14.88
2022-09-27T14:08:07.153Z,16.33
2022-09-27T14:10:36.250Z,17.20
2022-09-27T14:13:05.952Z,15.80
2022-09-27T14:15:34.201Z,13.88
2022-09-27T14:18:01.771Z,13.13
2022-09-27T14:20:33.127Z,15.95
2022-09-27T14:23:02.089Z,13.68
2022-09-27T14:25:29.693Z,14.10
2022-09-27T14:28:00.173Z,15.90
2022-09-27T14:30:30.147Z,13.20
2022-09-27T14:33:01.744Z,15.23
2022-09-27T14:35:49.954Z,15.60
2022-09-27T14:38:37.120Z,13.27
2022-09-27T14:41:08.103Z,12.10
2022-09-27T14:43:42.004Z,12.97
2022-09-27T14:46:28.730Z,13.60
2022-09-27T14:48:56.681Z,13.70
2022-09-27T14:51:32.823Z,14.85
2022-09-27T14:54:04.173Z,12.32
2022-09-27T14:56:37.390Z,14.70
2022-09-27T14:59:11.468Z,17.73
2022-09-27T15:01:40.359Z,14.38
2022-09-27T15:04:14.095Z,27.38
2022-09-27T15:06:43.286Z,17.65
2022-09-27T15:09:14.208Z,17.67
2022-09-27T15:11:42.904Z,18.02
2022-09-27T15:14:20.112Z,17.08
2022-09-27T15:16:49.941Z,18.60
2022-09-27T15:19:27.249Z,18.13
2022-09-27T15:21:54.894Z,16.55
2022-09-27T15:25:03.480Z,19.35
2022-09-27T15:27:30.815Z,18.35
2022-09-27T15:29:59.734Z,20.88
2022-09-27T15:32:29.037Z,18.20
2022-09-27T15:34:57.581Z,16.40
2022-09-27T15:37:36.761Z,16.98
2022-09-27T15:40:19.742Z,26.20
2022-09-27T15:42:57.975Z,19.95
2022-09-27T15:45:30.560Z,16.77
2022-09-27T15:48:13.460Z,17.52
2022-09-27T15:50:41.512Z,18.25
2022-09-27T15:53:10.721Z,23.42
2022-09-27T15:55:45.376Z,23.17
2022-09-27T15:58:20.282Z,27.50
2022-09-27T16:00:58.826Z,25.85
2022-09-27T16:03:27.214Z,24.90
2022-09-27T16:05:56.767Z,29.17
2022-09-27T16:08:25.415Z,23.65
2022-09-27T16:10:55.443Z,26.77
2022-09-27T16:13:32.477Z,24.42
2022-09-27T16:16:02.234Z,26.30
2022-09-27T16:18:30.795Z,31.02
2022-09-27T16:20:59.455Z,24.40
2022-09-27T16:23:26.844Z,27.08
2022-09-27T16:25:54.219Z,25.98
2022-09-27T16:28:21.695Z,24.95
2022-09-27T16:30:49.035Z,25.85
2022-09-27T16:33:16.410Z,23.20
2022-09-27T16:35:43.922Z,25.30
2022-09-27T16:38:11.394Z,26.77
2022-09-27T16:40:38.849Z,31.98
2022-09-27T16:43:07.549Z,37.00
2022-09-27T16:45:36.665Z,33.67
2022-09-27T16:48:04.383Z,38.70
2022-09-27T16:50:50.111Z,33.97
2022-09-27T16:53:17.538Z,43.25
2022-09-27T16:55:44.907Z,35.25
2022-09-27T16:58:12.255Z,42.58
2022-09-27T17:00:42.146Z,36.03
2022-09-27T17:03:10.140Z,31.27
2022-09-27T17:05:37.521Z,35.70
2022-09-27T17:08:05.499Z,32.78
2022-09-27T17:10:32.889Z,33.05
2022-09-27T17:13:01.677Z,33.22
2022-09-27T17:15:29.632Z,32.17
2022-09-27T17:17:57.081Z,32.05
2022-09-27T17:20:24.438Z,32.42
2022-09-27T17:22:51.855Z,32.22
2022-09-27T17:25:19.209Z,32.97
2022-09-27T17:27:46.575Z,33.28
2022-09-27T17:30:14.002Z,31.95
2022-09-27T17:32:41.432Z,32.53
2022-09-27T17:35:09.450Z,34.40
2022-09-27T17:37:37.039Z,36.30
2022-09-27T17:40:05.708Z,32.35
2022-09-27T17:42:34.365Z,35.95
2022-09-27T17:45:01.675Z,30.25
2022-09-27T17:47:47.506Z,32.22
2022-09-27T17:50:29.994Z,34.35
2022-09-27T17:52:58.946Z,27.98
2022-09-27T17:55:27.090Z,27.20
2022-09-27T17:57:54.493Z,29.40
2022-09-27T18:00:22.074Z,29.95
2022-09-27T18:02:49.625Z,28.27
2022-09-27T18:05:21.113Z,27.63
2022-09-27T18:07:48.961Z,27.42
2022-09-27T18:10:17.794Z,28.25
2022-09-27T18:12:45.504Z,31.77
2022-09-27T18:15:13.248Z,31.75
2022-09-27T18:17:40.647Z,31.70
2022-09-27T18:20:08.497Z,28.83
2022-09-27T18:22:36.625Z,33.58
2022-09-27T18:25:05.174Z,32.53
2022-09-27T18:27:34.959Z,35.00
2022-09-27T18:30:03.539Z,31.88
2022-09-27T18:32:30.881Z,36.28
2022-09-27T18:34:58.234Z,39.47
2022-09-27T18:37:27.075Z,33.83
2022-09-27T18:39:55.896Z,30.52
2022-09-27T18:42:23.345Z,34.05
2022-09-27T18:44:50.812Z,37.33
2022-09-27T18:47:18.269Z,33.33
2022-09-27T18:49:45.666Z,42.38
2022-09-27T18:52:13.154Z,40.05
2022-09-27T18:54:41.127Z,38.33
2022-09-27T18:57:08.521Z,37.90
2022-09-27T18:59:35.919Z,34.75
2022-09-27T19:02:03.505Z,35.70
2022-09-27T19:04:30.951Z,34.15
2022-09-27T19:06:58.625Z,39.42
2022-09-27T19:09:28.977Z,34.97
2022-09-27T19:11:56.315Z,33.78
2022-09-27T19:14:24.514Z,34.83
2022-09-27T19:16:52.011Z,39.47
2022-09-27T19:19:20.392Z,35.55
2022-09-27T19:21:49.127Z,43.65
2022-09-27T19:24:18.252Z,36.05
2022-09-27T19:26:45.679Z,33.05
2022-09-27T19:29:14.603Z,33.47
2022-09-27T19:31:42.438Z,33.95
2022-09-27T19:34:11.084Z,44.08
2022-09-27T19:36:38.437Z,37.33
2022-09-27T19:39:05.924Z,37.88
2022-09-27T19:41:33.377Z,41.88
2022-09-27T19:44:01.308Z,38.78
2022-09-27T19:46:28.822Z,35.95
2022-09-27T19:48:56.387Z,44.30
2022-09-27T19:51:26.871Z,44.17
2022-09-27T19:53:55.036Z,45.20
2022-09-27T19:56:23.358Z,39.75
2022-09-27T19:58:51.022Z,36.20
2022-09-27T20:01:23.843Z,41.67
2022-09-27T20:03:53.313Z,40.30
2022-09-27T20:06:21.897Z,36.95
2022-09-27T20:08:50.730Z,39.22
2022-09-27T20:11:23.321Z,42.40
2022-09-27T20:13:53.051Z,40.63
2022-09-27T20:16:23.831Z,45.58
2022-09-27T20:18:56.052Z,43.10
2022-09-27T20:21:29.257Z,43.78
2022-09-27T20:23:57.653Z,39.67
2022-09-27T20:26:27.522Z,41.45
2022-09-27T20:28:59.636Z,38.00
2022-09-27T20:31:30.371Z,38.92
2022-09-27T20:33:57.749Z,37.10
2022-09-27T20:36:27.879Z,42.55
2022-09-27T20:39:01.895Z,45.45
2022-09-27T20:41:32.291Z,40.50
2022-09-27T20:44:03.488Z,37.03
2022-09-27T20:46:31.298Z,40.45
2022-09-27T20:49:00.956Z,33.63
2022-09-27T20:51:28.864Z,37.78
2022-09-27T20:53:56.250Z,36.55
2022-09-27T20:56:26.710Z,36.80
2022-09-27T20:58:56.169Z,36.22
2022-09-27T21:01:25.026Z,35.20
2022-09-27T21:03:57.084Z,36.55
2022-09-27T21:06:24.899Z,36.03
2022-09-27T21:08:52.306Z,32.65
2022-09-27T21:11:20.853Z,30.20
2022-09-27T21:13:49.378Z,34.78
2022-09-27T21:16:22.498Z,28.27
2022-09-27T21:18:51.557Z,31.23
2022-09-27T21:21:19.930Z,29.23
2022-09-27T21:23:48.654Z,26.42
2022-09-27T21:26:18.522Z,42.40
2022-09-27T21:28:48.198Z,29.98
2022-09-27T21:31:22.534Z,27.88
2022-09-27T21:33:55.620Z,29.15
2022-09-27T21:36:24.340Z,31.85
2022-09-27T21:38:51.829Z,36.28
2022-09-27T21:41:19.543Z,42.85
2022-09-27T21:43:48.970Z,35.80
2022-09-27T21:46:25.158Z,27.95
2022-09-27T21:48:55.817Z,28.88
2022-09-27T21:51:31.909Z,30.95
2022-09-27T21:54:01.407Z,33.03
2022-09-27T21:56:31.552Z,34.28
2022-09-27T21:58:59.181Z,41.80
2022-09-27T22:01:29.731Z,42.53
2022-09-27T22:03:58.010Z,41.10
2022-09-27T22:06:31.222Z,45.65
2022-09-27T22:08:59.585Z,41.90
2022-09-27T22:11:29.479Z,49.70
2022-09-27T22:13:57.350Z,43.17
2022-09-27T22:16:30.355Z,48.75
2022-09-27T22:18:58.228Z,42.75
2022-09-27T22:21:31.954Z,40.97
2022-09-27T22:24:07.244Z,42.72
2022-09-27T22:26:37.680Z,44.00
2022-09-27T22:29:06.360Z,50.63
2022-09-27T22:31:34.218Z,50.63
2022-09-27T22:34:04.490Z,54.28
2022-09-27T22:36:33.567Z,41.47
2022-09-27T22:39:01.506Z,42.00
2022-09-27T22:41:30.567Z,52.40
2022-09-27T22:43:58.225Z,36.25
2022-09-27T22:46:25.853Z,41.08
2022-09-27T22:48:53.388Z,37.58
2022-09-27T22:51:20.788Z,35.55
2022-09-27T22:53:48.186Z,29.67
2022-09-27T22:56:20.675Z,28.05
2022-09-27T22:58:49.233Z,27.30
2022-09-27T23:01:22.137Z,30.27
2022-09-27T23:03:51.840Z,28.77
2022-09-27T23:06:20.790Z,25.27
2022-09-27T23:08:48.762Z,24.25
2022-09-27T23:11:20.890Z,29.65
2022-09-27T23:13:49.889Z,23.92
2022-09-27T23:16:20.686Z,20.13
2022-09-27T23:18:48.143Z,21.05
2022-09-27T23:21:16.269Z,19.23
2022-09-27T23:23:45.194Z,20.13
2022-09-27T23:26:14.871Z,14.95
2022-09-27T23:28:43.200Z,22.55
2022-09-27T23:31:12.175Z,20.15
2022-09-27T23:33:42.125Z,24.83
2022-09-27T23:36:12.275Z,27.52
2022-09-27T23:38:41.133Z,24.98
2022-09-27T23:41:08.700Z,20.33
2022-09-27T23:43:36.490Z,22.33
2022-09-27T23:46:05.815Z,19.90
2022-09-27T23:48:36.709Z,21.85
2022-09-27T23:51:06.530Z,26.75
2022-09-27T23:53:33.991Z,27.05
2022-09-27T23:56:03.625Z,17.80
2022-09-27T23:58:35.307Z,20.13
